Time;durP1;ratioP1;P1;durP2;ratioP2;P2;SDS_P1;SDS_P2;PMS_P1;PMS_P2;Temp;Humidity;BMP_temperature;BMP_pressure;BME280_temperature;BME280_humidity;BME280_pressure;Samples;Min_cycle;Max_cycle;Signal;HPM_P1;HPM_P2
2021/06/04 00:00:15;;;;;;;0.30;0.30;;;;;;;-144.31;100.00;74644.97;5005854;28;20037;-75
2021/06/04 00:02:41;;;;;;;0.30;0.30;;;;;;;-144.31;100.00;74662.94;5001769;28;20034;-75
2021/06/04 00:05:08;;;;;;;0.40;0.40;;;;;;;-144.31;100.00;74670.91;5008975;28;20412;-75
2021/06/04 00:07:37;;;;;;;0.40;0.40;;;;;;;-144.31;100.00;74684.91;5002528;28;20443;-76
2021/06/04 00:10:07;;;;;;;0.30;0.30;;;;;;;-144.31;100.00;74702.88;5004991;28;20499;-75
2021/06/04 00:12:33;;;;;;;0.30;0.30;;;;;;;-144.31;100.00;74714.84;5005796;28;20124;-75
2021/06/04 00:14:58;;;;;;;0.30;0.30;;;;;;;-144.31;100.00;74726.84;5010102;28;20486;-75
2021/06/04 00:17:24;;;;;;;0.30;0.30;;;;;;;-144.31;100.00;74734.81;5013389;28;20040;-75
2021/06/04 00:19:50;;;;;;;0.40;0.40;;;;;;;-144.31;100.00;74722.84;5004746;28;20119;-75
2021/06/04 00:22:22;;;;;;;0.30;0.30;;;;;;;-144.31;100.00;74722.84;5013892;28;20042;-75
2021/06/04 00:24:51;;;;;;;0.30;0.30;;;;;;;-144.31;100.00;74726.84;5007664;28;20034;-75
2021/06/04 00:27:18;;;;;;;0.22;0.22;;;;;;;-144.31;100.00;74726.84;5003317;28;20033;-75
2021/06/04 00:29:44;;;;;;;0.35;0.35;;;;;;;-144.31;100.00;74720.84;5006228;28;20045;-75
2021/06/04 00:32:13;;;;;;;0.30;0.30;;;;;;;-144.31;100.00;74728.84;5006490;28;20040;-75
2021/06/04 00:34:39;;;;;;;0.30;0.30;;;;;;;-144.31;100.00;74728.84;4999772;28;20089;-75
2021/06/04 00:37:05;;;;;;;0.20;0.20;;;;;;;-144.31;100.00;74728.84;5007706;28;20048;-75
2021/06/04 00:39:37;;;;;;;0.30;0.30;;;;;;;-144.31;100.00;74724.84;5009039;28;20029;-75
2021/06/04 00:42:25;;;;;;;0.30;0.30;;;;;;;-144.31;100.00;74722.84;4988827;28;20045;-75
2021/06/04 00:44:55;;;;;;;0.30;0.30;;;;;;;-144.31;100.00;74730.81;5003909;28;20038;-75
2021/06/04 00:47:25;;;;;;;0.35;0.35;;;;;;;-144.31;100.00;74744.81;5006546;28;20045;-75
2021/06/04 00:49:54;;;;;;;0.30;0.30;;;;;;;-144.31;100.00;74758.78;5006365;28;20093;-75
2021/06/04 00:52:26;;;;;;;0.27;0.27;;;;;;;-144.31;100.00;74768.78;5002828;28;20037;-75
2021/06/04 00:54:56;;;;;;;0.30;0.30;;;;;;;-144.31;100.00;74780.75;5006191;28;20034;-75
2021/06/04 00:57:23;;;;;;;0.30;0.30;;;;;;;-144.31;100.00;74792.72;5004267;28;20042;-75
2021/06/04 00:59:49;;;;;;;0.40;0.40;;;;;;;-144.31;100.00;74802.72;5002125;28;20026;-75
2021/06/04 01:02:22;;;;;;;0.30;0.30;;;;;;;-144.31;100.00;74814.69;5022105;28;20392;-75
2021/06/04 01:04:48;;;;;;;0.30;0.30;;;;;;;-144.31;100.00;74832.66;5004012;28;20133;-75
2021/06/04 01:07:39;;;;;;;0.30;0.30;;;;;;;-144.31;100.00;74826.69;5004277;28;20116;-75
2021/06/04 01:10:49;;;;;;;0.40;0.40;;;;;;;-144.31;100.00;74826.69;5001677;28;20044;-75
2021/06/04 01:13:36;;;;;;;0.40;0.40;;;;;;;-144.31;100.00;74830.66;5002080;28;20061;-75
2021/06/04 01:16:14;;;;;;;0.40;0.40;;;;;;;-144.31;100.00;74846.66;4986532;28;20033;-75
2021/06/04 01:18:45;;;;;;;0.30;0.30;;;;;;;-144.31;100.00;74846.66;4986148;28;20041;-75
2021/06/04 01:21:25;;;;;;;0.30;0.30;;;;;;;-144.31;100.00;74850.63;5006414;28;20049;-75
2021/06/04 01:24:33;;;;;;;0.40;0.40;;;;;;;-144.31;100.00;74854.63;5004763;28;20041;-75
2021/06/04 01:27:09;;;;;;;0.28;0.28;;;;;;;-144.31;100.00;74866.63;4968421;28;20065;-75
2021/06/04 01:29:41;;;;;;;0.30;0.30;;;;;;;-144.31;100.00;74882.59;5002235;28;20127;-75
2021/06/04 01:32:18;;;;;;;0.30;0.30;;;;;;;-144.31;100.00;74896.56;5002642;28;20025;-75
2021/06/04 01:34:50;;;;;;;0.30;0.30;;;;;;;-144.31;100.00;74910.56;5019953;28;20072;-75
2021/06/04 01:37:26;;;;;;;0.38;0.38;;;;;;;-144.31;100.00;74920.53;5008458;28;20523;-75
2021/06/04 01:40:09;;;;;;;0.30;0.30;;;;;;;-144.31;100.00;74930.53;5002138;28;20662;-75
2021/06/04 01:42:41;;;;;;;0.40;0.40;;;;;;;-144.31;100.00;74938.50;5001380;28;20034;-75
2021/06/04 01:45:15;;;;;;;0.38;0.38;;;;;;;-144.31;100.00;74944.50;5006022;28;20029;-75
2021/06/04 01:47:45;;;;;;;0.40;0.40;;;;;;;-144.31;100.00;74950.50;5000456;28;20038;-75
2021/06/04 01:50:14;;;;;;;0.40;0.40;;;;;;;-144.31;100.00;74948.50;5021285;28;20037;-75
2021/06/04 01:52:43;;;;;;;0.30;0.30;;;;;;;-144.31;100.00;74956.47;5002982;28;20040;-75
2021/06/04 01:55:14;;;;;;;0.35;0.35;;;;;;;-144.31;100.00;74960.47;5003677;28;20041;-75
2021/06/04 01:57:45;;;;;;;0.30;0.30;;;;;;;-144.31;100.00;74966.47;4991284;28;20026;-75
2021/06/04 02:00:37;;;;;;;0.30;0.30;;;;;;;-144.31;100.00;74972.47;5012699;28;20034;-74
2021/06/04 02:03:15;;;;;;;0.30;0.30;;;;;;;-144.31;100.00;74980.44;5022943;28;20048;-75
2021/06/04 02:05:53;;;;;;;0.30;0.30;;;;;;;-144.31;100.00;74982.44;5010187;28;20041;-75
2021/06/04 02:08:28;;;;;;;0.32;0.32;;;;;;;-144.31;100.00;74984.44;5005612;28;20037;-75
2021/06/04 02:10:57;;;;;;;0.40;0.40;;;;;;;-144.31;100.00;74990.44;5022495;28;20066;-75
2021/06/04 02:13:24;;;;;;;0.30;0.30;;;;;;;-144.31;100.00;74994.44;5010291;28;20037;-75
2021/06/04 02:16:19;;;;;;;0.30;0.30;;;;;;;-144.31;100.00;74998.41;5005495;28;20041;-75
2021/06/04 02:18:49;;;;;;;0.40;0.40;;;;;;;-144.31;100.00;75004.41;5009551;28;20133;-75
2021/06/04 02:21:35;;;;;;;0.40;0.40;;;;;;;-144.31;100.00;75008.41;5005290;28;20064;-75
2021/06/04 02:24:09;;;;;;;0.30;0.30;;;;;;;-144.31;100.00;75014.41;5009834;28;20037;-74
2021/06/04 02:27:00;;;;;;;0.30;0.30;;;;;;;-144.31;100.00;75012.41;5006423;28;20334;-75
2021/06/04 02:29:50;;;;;;;0.40;0.40;;;;;;;-144.31;100.00;75020.38;5005815;28;20570;-75
2021/06/04 02:32:39;;;;;;;0.40;0.40;;;;;;;-144.31;100.00;75024.38;5009509;28;20167;-75
2021/06/04 02:35:08;;;;;;;0.40;0.40;;;;;;;-144.31;100.00;75024.38;5008780;28;20033;-75
2021/06/04 02:37:39;;;;;;;0.40;0.40;;;;;;;-144.31;100.00;75016.41;5009456;28;20029;-75
2021/06/04 02:40:09;;;;;;;0.40;0.40;;;;;;;-144.31;100.00;75008.41;5017153;28;20113;-75
2021/06/04 02:42:47;;;;;;;0.30;0.30;;;;;;;-144.31;100.00;75010.41;5004702;28;20038;-75
2021/06/04 02:45:27;;;;;;;0.40;0.40;;;;;;;-144.31;100.00;75008.41;5004616;28;20088;-75
2021/06/04 02:47:59;;;;;;;0.30;0.30;;;;;;;-144.31;100.00;75012.41;5023531;28;20538;-75
2021/06/04 02:50:37;;;;;;;0.50;0.50;;;;;;;-144.31;100.00;75014.41;5013970;28;20034;-75
2021/06/04 02:53:45;;;;;;;0.40;0.40;;;;;;;-144.31;100.00;75012.41;5008620;28;20483;-75
2021/06/04 02:56:33;;;;;;;0.40;0.40;;;;;;;-144.31;100.00;75014.41;4958125;28;20041;-75
2021/06/04 02:59:05;;;;;;;0.40;0.40;;;;;;;-144.31;100.00;75020.38;5004997;28;20104;-74
2021/06/04 03:01:35;;;;;;;0.40;0.40;;;;;;;-144.31;100.00;75036.38;4990853;28;20037;-74
2021/06/04 03:04:05;;;;;;;0.40;0.40;;;;;;;-144.31;100.00;75040.34;4993633;28;20061;-75
2021/06/04 03:06:41;;;;;;;0.40;0.40;;;;;;;-144.31;100.00;75044.34;5008846;28;20038;-75
2021/06/04 03:09:13;;;;;;;0.40;0.40;;;;;;;-144.31;100.00;75042.34;5009939;28;20037;-75
2021/06/04 03:11:45;;;;;;;0.35;0.35;;;;;;;-144.31;100.00;75040.34;5007468;28;20029;-75
2021/06/04 03:14:14;;;;;;;0.30;0.30;;;;;;;-144.31;100.00;75044.34;5007558;28;20034;-75
2021/06/04 03:16:40;;;;;;;0.40;0.40;;;;;;;-144.31;100.00;75050.34;5007101;28;20209;-75
2021/06/04 03:19:14;;;;;;;0.40;0.40;;;;;;;-144.31;100.00;75046.34;5005859;28;20038;-75
2021/06/04 03:21:51;;;;;;;0.50;0.50;;;;;;;-144.31;100.00;75036.38;5022530;28;20030;-75
2021/06/04 03:24:22;;;;;;;0.40;0.40;;;;;;;-144.31;100.00;75030.38;5007982;28;20407;-75
2021/06/04 03:26:51;;;;;;;0.40;0.40;;;;;;;-144.31;100.00;75022.38;5013026;28;20545;-75
2021/06/04 03:29:19;;;;;;;0.40;0.40;;;;;;;-144.31;100.00;75022.38;5023929;28;20502;-75
2021/06/04 03:31:54;;;;;;;0.40;0.40;;;;;;;-144.31;100.00;75012.41;5003373;28;20026;-75
2021/06/04 03:34:23;;;;;;;0.40;0.40;;;;;;;-144.31;100.00;75006.41;5008080;28;20053;-75
2021/06/04 03:36:53;;;;;;;0.40;0.40;;;;;;;-144.31;100.00;75002.41;5020745;28;20034;-75
2021/06/04 03:39:26;;;;;;;0.38;0.38;;;;;;;-144.31;100.00;74996.41;5008887;28;20041;-74
2021/06/04 03:41:53;;;;;;;0.40;0.40;;;;;;;-144.31;100.00;74984.44;5008786;28;20037;-74
2021/06/04 03:44:22;;;;;;;0.40;0.40;;;;;;;-144.31;100.00;74978.44;5009963;28;20069;-75
2021/06/04 03:46:48;;;;;;;0.40;0.40;;;;;;;-144.31;100.00;74974.47;5005834;28;20366;-75
2021/06/04 03:49:17;;;;;;;0.40;0.40;;;;;;;-144.31;100.00;74970.47;5014087;28;20027;-75
2021/06/04 03:51:44;;;;;;;0.40;0.40;;;;;;;-144.31;100.00;74968.47;4999670;28;20133;-75
2021/06/04 03:54:15;;;;;;;0.40;0.40;;;;;;;-144.31;100.00;74964.47;4988870;28;20034;-75
2021/06/04 03:56:43;;;;;;;0.40;0.40;;;;;;;-144.31;100.00;74970.47;5005995;28;20106;-75
2021/06/04 03:59:09;;;;;;;0.40;0.40;;;;;;;-144.31;100.00;74974.47;5004987;28;20044;-75
2021/06/04 04:01:38;;;;;;;0.40;0.40;;;;;;;-144.31;100.00;74974.47;5008700;28;20037;-75
2021/06/04 04:04:06;;;;;;;0.40;0.40;;;;;;;-144.31;100.00;74976.44;5003148;28;20525;-75
2021/06/04 04:06:34;;;;;;;0.30;0.30;;;;;;;-144.31;100.00;74978.44;5008694;28;20037;-75
2021/06/04 04:09:04;;;;;;;0.40;0.40;;;;;;;-144.31;100.00;74976.44;5006344;28;20095;-75
2021/06/04 04:11:29;;;;;;;0.30;0.30;;;;;;;-144.31;100.00;74978.44;5005691;28;20176;-75
2021/06/04 04:13:55;;;;;;;0.50;0.50;;;;;;;-144.31;100.00;74974.47;5008594;28;20148;-75
2021/06/04 04:16:20;;;;;;;0.40;0.40;;;;;;;-144.31;100.00;74968.47;5006822;28;20040;-75
2021/06/04 04:18:48;;;;;;;0.40;0.40;;;;;;;-144.31;100.00;74974.47;4989331;28;20494;-75
2021/06/04 04:21:14;;;;;;;0.40;0.40;;;;;;;-144.31;100.00;74968.47;5002716;28;20122;-74
2021/06/04 04:23:47;;;;;;;0.40;0.40;;;;;;;-144.31;100.00;74954.47;5021886;28;20030;-76
2021/06/04 04:26:17;;;;;;;0.40;0.40;;;;;;;-144.31;100.00;74942.50;5004516;28;20030;-75
2021/06/04 04:28:47;;;;;;;0.40;0.40;;;;;;;-144.31;100.00;74934.50;5003439;28;20117;-75
2021/06/04 04:31:16;;;;;;;0.40;0.40;;;;;;;-144.31;100.00;74916.53;5003192;28;20412;-75
2021/06/04 04:33:42;;;;;;;0.40;0.40;;;;;;;-144.31;100.00;74888.59;5013074;28;20036;-75
2021/06/04 04:36:10;;;;;;;0.30;0.30;;;;;;;-144.31;100.00;74866.63;5008605;28;20507;-75
2021/06/04 04:38:38;;;;;;;0.30;0.30;;;;;;;-144.31;100.00;74842.66;5006744;28;20041;-76
2021/06/04 04:41:05;;;;;;;0.35;0.35;;;;;;;-144.31;100.00;74786.75;5007020;28;20121;-75
2021/06/04 04:43:40;;;;;;;0.50;0.50;;;;;;;-144.31;100.00;74768.78;5012395;28;20480;-75
2021/06/04 04:46:08;;;;;;;0.38;0.38;;;;;;;-144.31;100.00;74744.81;5003663;28;20026;-75
2021/06/04 04:48:36;;;;;;;0.30;0.30;;;;;;;-144.31;100.00;74728.84;5006672;28;20038;-75
2021/06/04 04:51:04;;;;;;;0.30;0.30;;;;;;;-144.31;100.00;74718.84;4989413;28;20044;-75
2021/06/04 04:53:29;;;;;;;0.30;0.30;;;;;;;-144.31;100.00;74704.88;5018950;28;20207;-75
2021/06/04 04:55:55;;;;;;;0.30;0.30;;;;;;;-144.31;100.00;74698.88;5021637;28;20411;-76
2021/06/04 04:58:21;;;;;;;0.30;0.30;;;;;;;-144.31;100.00;74682.91;5000733;28;20042;-75
2021/06/04 05:00:49;;;;;;;0.30;0.30;;;;;;;-144.31;100.00;74648.94;5020594;28;20044;-74
2021/06/04 05:03:22;;;;;;;0.30;0.30;;;;;;;-144.31;100.00;74617.00;5007989;28;20038;-75
2021/06/04 05:05:48;;;;;;;0.30;0.30;;;;;;;-144.31;100.00;74593.03;4997487;28;20100;-75
2021/06/04 05:08:14;;;;;;;0.37;0.37;;;;;;;-144.31;100.00;74593.03;5019492;28;20030;-74
2021/06/04 05:10:40;;;;;;;0.28;0.28;;;;;;;-144.31;100.00;74545.13;5005613;28;20030;-75
2021/06/04 05:13:10;;;;;;;0.38;0.38;;;;;;;-144.31;100.00;74515.16;4998008;28;20045;-75
2021/06/04 05:15:40;;;;;;;0.30;0.30;;;;;;;-144.31;100.00;74475.22;5022887;28;20069;-74
2021/06/04 05:18:11;;;;;;;0.30;0.30;;;;;;;-144.31;100.00;74459.25;5004051;28;20034;-75
2021/06/04 05:20:37;;;;;;;0.30;0.30;;;;;;;-144.31;100.00;74429.31;5005837;28;20044;-75
2021/06/04 05:23:06;;;;;;;0.25;0.25;;;;;;;-144.31;100.00;74389.38;5006227;28;20407;-75
2021/06/04 05:25:35;;;;;;;0.20;0.20;;;;;;;-144.31;100.00;74345.44;5004170;28;20030;-74
2021/06/04 05:28:01;;;;;;;0.30;0.30;;;;;;;-144.31;100.00;74315.50;4985257;28;20049;-74
2021/06/04 05:30:31;;;;;;;0.30;0.30;;;;;;;-144.31;100.00;74283.53;4999557;28;20128;-74
2021/06/04 05:32:57;;;;;;;0.20;0.20;;;;;;;-144.31;100.00;74253.59;4999360;28;20664;-75
2021/06/04 05:35:26;;;;;;;0.20;0.20;;;;;;;-144.31;100.00;74251.59;5005971;28;20064;-75
2021/06/04 05:37:53;;;;;;;0.30;0.30;;;;;;;-144.31;100.00;74195.69;5003735;28;20104;-75
2021/06/04 05:40:26;;;;;;;0.20;0.20;;;;;;;-144.31;100.00;74151.78;5004941;28;20111;-76
2021/06/04 05:42:52;;;;;;;0.20;0.20;;;;;;;-144.31;100.00;74139.78;5002800;28;20075;-75
2021/06/04 05:45:21;;;;;;;0.22;0.22;;;;;;;-144.31;100.00;74129.81;5007057;28;20051;-73
2021/06/04 05:47:47;;;;;;;0.20;0.20;;;;;;;-144.31;100.00;74109.84;5002266;28;20172;-74
2021/06/04 05:50:17;;;;;;;0.20;0.20;;;;;;;-144.31;100.00;74095.88;5005830;28;20057;-73
2021/06/04 05:52:43;;;;;;;0.20;0.20;;;;;;;-144.31;100.00;74171.72;5002072;28;20038;-73
2021/06/04 05:55:13;;;;;;;0.20;0.20;;;;;;;-144.31;100.00;74075.91;4999781;28;20026;-76
2021/06/04 05:57:39;;;;;;;0.20;0.20;;;;;;;-144.31;100.00;74049.94;4997077;28;20048;-76
2021/06/04 06:00:17;;;;;;;0.30;0.30;;;;;;;-144.31;100.00;74055.94;5008083;28;20030;-76
2021/06/04 06:02:44;;;;;;;0.20;0.20;;;;;;;-144.31;100.00;74037.97;5005032;28;20053;-76
2021/06/04 06:05:10;;;;;;;0.20;0.20;;;;;;;-144.31;100.00;73992.03;5005835;28;20501;-75
2021/06/04 06:07:41;;;;;;;0.20;0.20;;;;;;;-144.31;100.00;73974.06;5007566;28;20121;-75
2021/06/04 06:10:07;;;;;;;0.20;0.20;;;;;;;-144.31;100.00;73882.22;5006269;28;20080;-77
2021/06/04 06:12:32;;;;;;;0.20;0.20;;;;;;;-144.31;100.00;73888.22;5017196;28;20033;-76
2021/06/04 06:14:58;;;;;;;0.20;0.20;;;;;;;-144.31;100.00;73876.25;4990441;28;20072;-76
2021/06/04 06:17:24;;;;;;;0.20;0.20;;;;;;;-144.31;100.00;73858.28;4989688;28;20140;-76
2021/06/04 06:19:49;;;;;;;0.17;0.17;;;;;;;-144.31;100.00;73812.34;5007924;28;20049;-76
2021/06/04 06:22:17;;;;;;;0.17;0.17;;;;;;;-144.31;100.00;73860.28;5006181;28;20503;-77
2021/06/04 06:24:43;;;;;;;0.22;0.22;;;;;;;-144.31;100.00;73780.41;5014729;28;20411;-76
2021/06/04 06:27:08;;;;;;;0.20;0.20;;;;;;;-144.31;100.00;73774.44;5005985;28;20037;-75
2021/06/04 06:29:38;;;;;;;0.15;0.15;;;;;;;-144.31;100.00;73796.38;5007695;28;20029;-76
2021/06/04 06:32:07;;;;;;;0.20;0.20;;;;;;;-144.31;100.00;73800.38;5005789;28;20125;-76
2021/06/04 06:34:34;;;;;;;0.10;0.10;;;;;;;-144.31;100.00;73802.38;5007437;28;20116;-76
2021/06/04 06:37:02;;;;;;;0.10;0.10;;;;;;;-144.31;100.00;73804.38;5005529;28;20088;-76
2021/06/04 06:39:31;;;;;;;0.20;0.20;;;;;;;-144.31;100.00;73800.38;5014373;28;20033;-76
2021/06/04 06:41:59;;;;;;;0.10;0.10;;;;;;;-144.31;100.00;73836.31;5006659;28;20041;-76
2021/06/04 06:44:25;;;;;;;0.20;0.20;;;;;;;-144.31;100.00;73834.31;5011175;28;20049;-76
2021/06/04 06:46:53;;;;;;;0.10;0.10;;;;;;;-144.31;100.00;73792.41;5007471;28;20487;-76
2021/06/04 06:49:22;;;;;;;0.20;0.20;;;;;;;-144.31;100.00;73766.44;5004500;28;20110;-76
2021/06/04 06:51:48;;;;;;;0.20;0.20;;;;;;;-144.31;100.00;73778.41;5007636;28;20073;-77
2021/06/04 06:54:17;;;;;;;0.13;0.13;;;;;;;-144.31;100.00;73762.44;5008138;28;20042;-76
2021/06/04 06:56:45;;;;;;;0.25;0.20;;;;;;;-144.31;100.00;73770.44;5009701;28;20077;-76
2021/06/04 06:59:14;;;;;;;0.20;0.20;;;;;;;-144.31;100.00;73762.44;5007604;28;20040;-76
2021/06/04 07:01:40;;;;;;;0.17;0.17;;;;;;;-144.31;100.00;73754.47;5008769;28;20046;-76
2021/06/04 07:04:08;;;;;;;0.20;0.20;;;;;;;-144.31;100.00;73770.44;5007444;28;20061;-76
2021/06/04 07:06:37;;;;;;;0.10;0.10;;;;;;;-144.31;100.00;73802.38;5008633;28;20175;-76
2021/06/04 07:09:05;;;;;;;0.20;0.20;;;;;;;-144.31;100.00;73794.38;5007991;28;20100;-76
2021/06/04 07:11:36;;;;;;;0.20;0.20;;;;;;;-144.31;100.00;73822.34;5008374;28;20410;-77
2021/06/04 07:14:03;;;;;;;0.20;0.20;;;;;;;-144.31;100.00;73828.34;5009021;28;20459;-77
2021/06/04 07:16:29;;;;;;;0.20;0.20;;;;;;;-144.31;100.00;73854.28;5005452;28;20029;-77
2021/06/04 07:18:54;;;;;;;0.20;0.20;;;;;;;-144.31;100.00;73854.28;5008913;28;20431;-77
2021/06/04 07:21:23;;;;;;;0.20;0.20;;;;;;;-144.31;100.00;73848.28;5008003;28;20274;-78
2021/06/04 07:23:49;;;;;;;0.30;0.30;;;;;;;-144.31;100.00;73834.31;5007509;28;20045;-76
2021/06/04 07:26:18;;;;;;;0.20;0.20;;;;;;;-144.31;100.00;73824.34;5007879;28;20037;-77
2021/06/04 07:28:44;;;;;;;0.10;0.10;;;;;;;-144.31;100.00;73822.34;5008017;28;20279;-76
2021/06/04 07:31:13;;;;;;;0.10;0.10;;;;;;;-144.31;100.00;73894.22;5009012;28;20277;-76
2021/06/04 07:33:43;;;;;;;0.20;0.20;;;;;;;-144.31;100.00;73888.22;5008315;28;20270;-76
2021/06/04 07:36:15;;;;;;;0.10;0.10;;;;;;;-144.31;100.00;73830.31;5008414;28;20526;-77
2021/06/04 07:38:40;;;;;;;0.10;0.10;;;;;;;-144.31;100.00;73830.31;5006857;28;20038;-76
2021/06/04 07:41:07;;;;;;;0.20;0.20;;;;;;;-144.31;100.00;73758.44;5011993;28;20048;-76
2021/06/04 07:43:35;;;;;;;0.20;0.20;;;;;;;-144.31;100.00;73614.72;5008860;28;20033;-75
2021/06/04 07:46:02;;;;;;;0.20;0.20;;;;;;;-144.31;100.00;73524.88;5008298;28;20455;-76
2021/06/04 07:48:28;;;;;;;;;;;;;;;-144.31;100.00;73482.97;5008544;28;20391;-76
2021/06/04 07:50:56;;;;;;;0.20;0.20;;;;;;;-144.31;100.00;73492.94;5008140;28;19914;-76
2021/06/04 07:53:25;;;;;;;0.28;0.20;;;;;;;-144.31;100.00;73437.03;5004091;28;20073;-75
2021/06/04 07:55:51;;;;;;;0.10;0.10;;;;;;;-144.31;100.00;73620.69;5008382;28;20108;-75
2021/06/04 07:58:17;;;;;;;0.10;0.10;;;;;;;-144.31;100.00;73488.94;5014495;28;20040;-75
2021/06/04 08:00:45;;;;;;;0.10;0.10;;;;;;;-144.31;100.00;73467.00;5006521;28;20484;-75
2021/06/04 08:03:11;;;;;;;0.15;0.15;;;;;;;-144.31;100.00;73518.91;5007845;28;20048;-75
2021/06/04 08:05:37;;;;;;;0.13;0.13;;;;;;;-144.31;100.00;73470.97;5006668;28;20440;-75
2021/06/04 08:08:08;;;;;;;0.20;0.20;;;;;;;-144.31;100.00;73339.22;5007032;28;20033;-75
2021/06/04 08:10:38;;;;;;;0.10;0.10;;;;;;;-144.31;100.00;73357.19;5008010;28;20435;-76
2021/06/04 08:13:06;;;;;;;0.20;0.20;;;;;;;-144.31;100.00;73415.09;5007848;28;20056;-76
2021/06/04 08:15:41;;;;;;;0.20;0.20;;;;;;;-144.31;100.00;73622.69;5006360;28;20168;-76
2021/06/04 08:18:12;;;;;;;0.17;0.17;;;;;;;-144.31;100.00;73494.94;5002712;28;20033;-75
2021/06/04 08:20:40;;;;;;;0.10;0.10;;;;;;;-144.31;100.00;73516.91;5007580;28;20045;-75
2021/06/04 08:23:12;;;;;;;0.10;0.10;;;;;;;-144.31;100.00;73405.09;5006874;28;20038;-76
2021/06/04 08:25:42;;;;;;;0.10;0.10;;;;;;;-144.31;100.00;73353.19;5014626;28;20411;-75
2021/06/04 08:28:11;;;;;;;0.10;0.10;;;;;;;-144.31;100.00;73325.25;5005193;28;20077;-75
2021/06/04 08:30:38;;;;;;;0.10;0.10;;;;;;;-144.31;100.00;73291.31;5006023;28;20026;-76
2021/06/04 08:33:04;;;;;;;0.10;0.10;;;;;;;-144.31;100.00;73281.34;5004312;28;20099;-76
2021/06/04 08:35:31;;;;;;;0.17;0.17;;;;;;;-144.31;100.00;73285.34;5020931;28;20045;-75
2021/06/04 08:37:58;;;;;;;0.10;0.10;;;;;;;-144.31;100.00;73253.41;5005035;28;20108;-76
2021/06/04 08:40:33;;;;;;;0.15;0.15;;;;;;;-144.31;100.00;73261.38;5003436;28;20105;-76
2021/06/04 08:43:17;;;;;;;0.10;0.10;;;;;;;-144.31;100.00;73263.38;5018962;28;20042;-75
2021/06/04 08:45:53;;;;;;;0.10;0.10;;;;;;;-144.31;100.00;73233.44;5005265;28;20092;-75
2021/06/04 08:48:44;;;;;;;0.10;0.10;;;;;;;-144.31;100.00;73171.56;5006745;28;20354;-75
2021/06/04 08:51:32;;;;;;;0.10;0.10;;;;;;;-144.31;100.00;73177.53;5003063;28;20472;-75
2021/06/04 08:54:09;;;;;;;0.20;0.20;;;;;;;-144.31;100.00;73201.50;5006301;28;20085;-77
2021/06/04 08:56:44;;;;;;;0.10;0.10;;;;;;;-144.31;100.00;73065.75;5002985;28;20037;-75
2021/06/04 08:59:16;;;;;;;0.20;0.20;;;;;;;-144.31;100.00;73121.66;5007449;28;20692;-75
2021/06/04 09:01:58;;;;;;;0.20;0.20;;;;;;;-144.31;100.00;73081.72;5005343;28;20564;-75
2021/06/04 09:05:00;;;;;;;0.10;0.10;;;;;;;-144.31;100.00;73081.72;5002188;28;20125;-74
2021/06/04 09:07:34;;;;;;;0.10;0.10;;;;;;;-144.31;100.00;72991.91;5004705;28;20124;-75
2021/06/04 09:10:25;;;;;;;0.17;0.17;;;;;;;-144.31;100.00;73017.84;5018576;28;20048;-75
2021/06/04 09:13:05;;;;;;;0.20;0.10;;;;;;;-144.31;100.00;72977.94;5005864;28;20048;-76
2021/06/04 09:15:34;;;;;;;0.00;0.00;;;;;;;-144.31;100.00;72985.91;5001140;28;20038;-76
2021/06/04 09:18:08;;;;;;;0.00;0.00;;;;;;;-144.31;100.00;73075.75;5006141;28;20111;-76
2021/06/04 09:20:46;;;;;;;0.10;0.10;;;;;;;-144.31;100.00;73101.69;5005521;28;20685;-76
2021/06/04 09:23:14;;;;;;;0.10;0.10;;;;;;;-144.31;100.00;73107.69;5014456;28;20053;-76
2021/06/04 09:25:42;;;;;;;0.17;0.10;;;;;;;-144.31;100.00;73147.59;5005597;28;20184;-75
2021/06/04 09:28:09;;;;;;;0.10;0.10;;;;;;;-144.31;100.00;73193.50;5005756;28;20496;-75
2021/06/04 09:30:40;;;;;;;0.10;0.10;;;;;;;-144.31;100.00;73195.50;5005456;28;20034;-76
2021/06/04 09:33:18;;;;;;;0.10;0.10;;;;;;;-144.31;100.00;73215.47;5004942;28;20069;-76
2021/06/04 09:35:55;;;;;;;0.10;0.10;;;;;;;-144.31;100.00;73253.41;5006648;28;20037;-75
2021/06/04 09:38:45;;;;;;;0.10;0.10;;;;;;;-144.31;100.00;73251.41;5005747;28;20033;-76
2021/06/04 09:41:18;;;;;;;0.20;0.20;;;;;;;-144.31;100.00;73173.56;5003793;28;20122;-76
2021/06/04 09:43:46;;;;;;;0.00;0.00;;;;;;;-144.31;100.00;73145.59;5006410;28;20132;-76
2021/06/04 09:46:13;;;;;;;0.10;0.10;;;;;;;-144.31;100.00;73121.66;5006395;28;20534;-77
2021/06/04 09:48:56;;;;;;;0.25;0.20;;;;;;;-144.31;100.00;73061.75;5000702;28;20364;-77
2021/06/04 09:51:25;;;;;;;0.05;0.05;;;;;;;-144.31;100.00;73097.69;4998864;28;20033;-77
2021/06/04 09:53:52;;;;;;;0.10;0.10;;;;;;;-144.31;100.00;73129.63;5006518;28;20040;-77
2021/06/04 09:56:33;;;;;;;0.10;0.10;;;;;;;-144.31;100.00;73105.69;5006112;28;20053;-76
2021/06/04 09:59:05;;;;;;;0.15;0.10;;;;;;;-144.31;100.00;73119.66;5004644;28;20033;-77
2021/06/04 10:01:53;;;;;;;0.20;0.20;;;;;;;-144.31;100.00;73107.69;4999007;28;20083;-77
2021/06/04 10:04:31;;;;;;;0.10;0.10;;;;;;;-144.31;100.00;73049.78;5003210;28;20376;-77
2021/06/04 10:07:13;;;;;;;0.10;0.10;;;;;;;-144.31;100.00;73105.69;5002561;28;20037;-78
2021/06/04 10:09:42;;;;;;;0.10;0.10;;;;;;;-144.31;100.00;73125.63;5004826;28;20511;-77
2021/06/04 10:12:17;;;;;;;0.10;0.10;;;;;;;-144.31;100.00;73087.72;5005622;28;20088;-76
2021/06/04 10:14:58;;;;;;;0.20;0.20;;;;;;;-144.31;100.00;73033.81;5003634;28;20095;-75
2021/06/04 10:17:45;;;;;;;0.20;0.20;;;;;;;-144.31;100.00;73139.63;5007253;28;20034;-75
2021/06/04 10:20:33;;;;;;;0.10;0.10;;;;;;;-144.31;100.00;73021.84;5007733;28;20030;-75
2021/06/04 10:23:23;;;;;;;0.15;0.15;;;;;;;-144.31;100.00;73085.72;4987707;28;20092;-75
2021/06/04 10:25:50;;;;;;;0.10;0.10;;;;;;;-144.31;100.00;72965.97;5005211;28;20033;-75
2021/06/04 10:28:31;;;;;;;0.10;0.10;;;;;;;-144.31;100.00;72995.91;5007709;28;20041;-75
2021/06/04 10:31:06;;;;;;;0.10;0.10;;;;;;;-144.31;100.00;72977.94;5008757;28;20044;-76
2021/06/04 10:33:45;;;;;;;0.00;0.00;;;;;;;-144.31;100.00;72979.94;4996904;28;20088;-75
2021/06/04 10:36:17;;;;;;;0.13;0.10;;;;;;;-144.31;100.00;72888.13;5025037;28;20053;-75
2021/06/04 10:38:48;;;;;;;0.00;0.00;;;;;;;-144.31;100.00;72892.09;5009472;28;20034;-75
2021/06/04 10:41:24;;;;;;;0.10;0.10;;;;;;;-144.31;100.00;72830.22;5016585;28;20033;-76
2021/06/04 10:44:22;;;;;;;0.10;0.10;;;;;;;-144.31;100.00;72838.22;5021876;28;20049;-75
2021/06/04 10:46:56;;;;;;;0.00;0.00;;;;;;;-144.31;100.00;72766.34;4951912;28;20124;-75
2021/06/04 10:49:50;;;;;;;0.10;0.10;;;;;;;-144.31;100.00;72662.56;5008287;28;20052;-75
2021/06/04 10:52:46;;;;;;;0.10;0.10;;;;;;;-144.31;100.00;72768.34;5007143;28;20053;-75
2021/06/04 10:55:24;;;;;;;0.10;0.10;;;;;;;-144.31;100.00;72760.38;5006407;28;20042;-75
2021/06/04 10:58:08;;;;;;;0.00;0.00;;;;;;;-144.31;100.00;72904.09;5006608;28;20026;-75
2021/06/04 11:00:52;;;;;;;0.00;0.00;;;;;;;-144.31;100.00;72762.38;5007261;28;20041;-76
2021/06/04 11:03:31;;;;;;;0.10;0.10;;;;;;;-144.31;100.00;72728.44;5004029;28;20034;-76
2021/06/04 11:06:38;;;;;;;0.10;0.10;;;;;;;-144.31;100.00;72700.50;5008298;28;20038;-75
2021/06/04 11:09:23;;;;;;;0.10;0.10;;;;;;;-144.31;100.00;72720.44;5006801;28;20423;-75
2021/06/04 11:12:08;;;;;;;0.20;0.10;;;;;;;-144.31;100.00;72798.28;5004538;28;20033;-77
2021/06/04 11:14:54;;;;;;;0.10;0.10;;;;;;;-144.31;100.00;72950.00;5005095;28;20033;-77
2021/06/04 11:17:40;;;;;;;0.00;0.00;;;;;;;-144.31;100.00;72760.38;4997530;28;20092;-77
2021/06/04 11:20:17;;;;;;;0.10;0.10;;;;;;;-144.31;100.00;72810.28;5008141;28;20033;-76
2021/06/04 11:22:49;;;;;;;0.10;0.10;;;;;;;-144.31;100.00;72738.41;4997112;28;20050;-77
2021/06/04 11:25:27;;;;;;;0.10;0.10;;;;;;;-144.31;100.00;72710.47;5007136;28;20030;-76
2021/06/04 11:28:15;;;;;;;0.28;0.28;;;;;;;-144.31;100.00;72710.47;5002662;28;20496;-77
2021/06/04 11:30:45;;;;;;;0.00;0.00;;;;;;;-144.31;100.00;72684.53;5005846;28;20065;-76
2021/06/04 11:33:19;;;;;;;0.00;0.00;;;;;;;-144.31;100.00;72720.44;5015299;28;20038;-76